Time;durP1;ratioP1;P1;durP2;ratioP2;P2;SDS_P1;SDS_P2;PMS_P1;PMS_P2;Temp;Humidity;BMP_temperature;BMP_pressure;BME280_temperature;BME280_humidity;BME280_pressure;Samples;Min_cycle;Max_cycle;Signal;HPM_P1;HPM_P2
2022/07/23 00:00:51;;;;;;;6.10;5.40;;;24.50;99.90;;;;;;4973421;28;20513;-72
2022/07/23 00:03:17;;;;;;;6.10;5.60;;;24.50;99.90;;;;;;4974184;28;20176;-72
2022/07/23 00:05:42;;;;;;;5.27;4.97;;;24.50;99.90;;;;;;4972049;28;20183;-72
2022/07/23 00:08:08;;;;;;;5.30;4.90;;;24.50;99.90;;;;;;4972470;28;20508;-72
2022/07/23 00:10:34;;;;;;;5.40;5.00;;;24.40;99.90;;;;;;4972031;28;20184;-72
2022/07/23 00:13:00;;;;;;;5.70;5.30;;;24.40;99.90;;;;;;4972976;28;20454;-73
2022/07/23 00:15:25;;;;;;;5.17;4.80;;;24.40;99.90;;;;;;4973143;28;20200;-73
2022/07/23 00:17:51;;;;;;;5.73;5.10;;;24.40;99.90;;;;;;4972616;28;20192;-73
2022/07/23 00:20:17;;;;;;;5.43;5.03;;;24.30;99.90;;;;;;4973565;28;20215;-73
2022/07/23 00:22:54;;;;;;;5.73;5.00;;;24.30;99.90;;;;;;4972935;28;20196;-73
2022/07/23 00:25:21;;;;;;;4.50;4.20;;;24.20;99.90;;;;;;4973606;28;20411;-73
2022/07/23 00:27:46;;;;;;;6.23;5.17;;;24.20;99.90;;;;;;4973068;28;21057;-73
2022/07/23 00:30:12;;;;;;;5.80;5.20;;;24.20;99.90;;;;;;4973500;28;20528;-70
2022/07/23 00:32:50;;;;;;;5.33;4.77;;;24.10;99.90;;;;;;4972760;28;20220;-73
2022/07/23 00:35:19;;;;;;;5.23;4.80;;;24.10;99.90;;;;;;4973353;28;20470;-73
2022/07/23 00:37:44;;;;;;;5.33;4.93;;;24.10;99.90;;;;;;4973392;28;20557;-73
2022/07/23 00:40:11;;;;;;;5.10;4.70;;;24.10;99.90;;;;;;4972894;28;20573;-73
2022/07/23 00:42:37;;;;;;;5.30;4.83;;;24.00;99.90;;;;;;4972930;28;20223;-74
2022/07/23 00:45:04;;;;;;;4.73;4.30;;;24.00;99.90;;;;;;4973495;28;20419;-73
2022/07/23 00:47:29;;;;;;;5.27;4.70;;;23.90;99.90;;;;;;4973445;28;20542;-73
2022/07/23 00:49:55;;;;;;;6.03;5.53;;;23.80;99.90;;;;;;4972500;28;20440;-73
2022/07/23 00:52:21;;;;;;;6.83;4.93;;;23.70;99.90;;;;;;4972151;28;20246;-72
2022/07/23 00:54:46;;;;;;;6.07;5.00;;;23.60;99.90;;;;;;4972984;28;20173;-75
2022/07/23 00:57:12;;;;;;;4.73;4.33;;;23.60;99.90;;;;;;4973183;28;20187;-71
2022/07/23 00:59:41;;;;;;;5.53;5.13;;;23.50;99.90;;;;;;4973078;28;20664;-74
2022/07/23 02:32:43;;;;;;;5.70;5.20;;;22.10;99.90;;;;;;5111468;23;21010;-74
2022/07/23 02:35:09;;;;;;;5.97;5.37;;;22.10;99.90;;;;;;4965029;28;20475;-73
2022/07/23 02:37:34;;;;;;;5.73;5.23;;;22.10;99.90;;;;;;4968515;28;20183;-75
2022/07/23 02:40:00;;;;;;;7.00;5.43;;;22.00;99.90;;;;;;4971754;28;20176;-75
2022/07/23 02:42:25;;;;;;;6.37;5.87;;;22.00;99.90;;;;;;4970840;28;20199;-74
2022/07/23 02:44:52;;;;;;;6.17;5.63;;;21.90;99.90;;;;;;4971051;28;20188;-74
2022/07/23 02:47:17;;;;;;;8.60;5.60;;;21.90;99.90;;;;;;4971487;28;20194;-74
2022/07/23 02:49:43;;;;;;;6.00;5.57;;;21.80;99.90;;;;;;4971522;28;20847;-75
2022/07/23 02:52:10;;;;;;;7.23;5.60;;;21.80;99.90;;;;;;4970215;28;20207;-75
2022/07/23 02:54:36;;;;;;;5.17;4.70;;;21.80;99.90;;;;;;4968447;28;20174;-75
2022/07/23 02:57:02;;;;;;;6.10;5.57;;;21.70;99.90;;;;;;4970921;28;20990;-74
2022/07/23 02:59:27;;;;;;;6.20;5.60;;;21.70;99.90;;;;;;4971412;28;20482;-74
2022/07/23 03:01:53;;;;;;;7.20;6.07;;;21.70;99.90;;;;;;4969867;28;20636;-74
2022/07/23 03:04:18;;;;;;;5.90;5.40;;;21.70;99.90;;;;;;4971622;28;20180;-75
2022/07/23 03:06:44;;;;;;;6.30;5.80;;;21.70;99.90;;;;;;4971125;28;20191;-74
2022/07/23 03:09:09;;;;;;;6.83;6.17;;;21.70;99.90;;;;;;4971464;28;20295;-74
2022/07/23 03:11:35;;;;;;;5.47;5.13;;;21.70;99.90;;;;;;4970682;28;20192;-75
2022/07/23 03:14:00;;;;;;;6.17;5.67;;;21.70;99.90;;;;;;4972291;28;20175;-75
2022/07/23 03:16:26;;;;;;;5.20;4.80;;;21.70;99.90;;;;;;4975280;28;20266;-75
2022/07/23 03:18:51;;;;;;;5.43;4.93;;;21.70;99.90;;;;;;4974963;28;20260;-75
2022/07/23 03:21:17;;;;;;;6.53;6.03;;;21.70;99.90;;;;;;4974282;28;20601;-75
2022/07/23 03:23:42;;;;;;;5.63;5.13;;;21.70;99.90;;;;;;4974937;28;20172;-72
2022/07/23 03:26:08;;;;;;;6.10;5.60;;;21.70;99.90;;;;;;4975106;28;20266;-74
2022/07/23 03:28:33;;;;;;;8.10;5.70;;;21.70;99.90;;;;;;4974803;28;20183;-74
2022/07/23 03:30:59;;;;;;;6.03;5.33;;;21.60;99.90;;;;;;4973556;28;20230;-74
2022/07/23 03:33:24;;;;;;;5.23;4.73;;;21.60;99.90;;;;;;4957382;28;20191;-74
2022/07/23 03:35:50;;;;;;;7.30;5.10;;;21.60;99.90;;;;;;4974795;28;20644;-74
2022/07/23 03:38:15;;;;;;;5.20;4.90;;;21.60;99.90;;;;;;4974761;28;20179;-74
2022/07/23 03:40:41;;;;;;;6.63;6.13;;;21.60;99.90;;;;;;4974970;28;20187;-74
2022/07/23 03:43:07;;;;;;;5.47;5.00;;;21.50;99.90;;;;;;4974857;28;20657;-74
2022/07/23 03:45:33;;;;;;;6.27;5.77;;;21.40;99.90;;;;;;4975449;28;20262;-76
2022/07/23 03:47:59;;;;;;;5.70;5.30;;;21.40;99.90;;;;;;4974783;28;20307;-75
2022/07/23 03:50:25;;;;;;;6.27;5.77;;;21.40;99.90;;;;;;4974160;28;20415;-72
2022/07/23 03:52:50;;;;;;;6.20;5.70;;;21.40;99.90;;;;;;4974062;28;20454;-74
2022/07/23 03:55:16;;;;;;;5.97;5.37;;;21.30;99.90;;;;;;4974451;28;20207;-75
2022/07/23 03:57:41;;;;;;;6.30;5.73;;;21.30;99.90;;;;;;4973942;28;20203;-75
2022/07/23 04:00:09;;;;;;;5.83;5.33;;;21.30;99.90;;;;;;4973978;28;20200;-75
2022/07/23 04:02:35;;;;;;;8.70;5.37;;;21.20;99.90;;;;;;4973855;28;20216;-74
2022/07/23 04:05:01;;;;;;;6.50;5.90;;;21.20;99.90;;;;;;4973681;28;20500;-75
2022/07/23 04:07:26;;;;;;;5.60;5.20;;;21.20;99.90;;;;;;4973998;28;20416;-74
2022/07/23 04:09:52;;;;;;;6.23;5.50;;;21.30;99.90;;;;;;4974182;28;20169;-74
2022/07/23 04:12:18;;;;;;;6.77;6.17;;;21.30;99.90;;;;;;4973681;28;20299;-75
2022/07/23 04:14:44;;;;;;;5.50;5.10;;;21.30;99.90;;;;;;4974013;28;20645;-73
2022/07/23 04:17:10;;;;;;;6.33;5.73;;;21.30;99.90;;;;;;4973571;28;20184;-75
2022/07/23 04:19:39;;;;;;;6.13;5.03;;;21.40;99.90;;;;;;4974187;28;20920;-75
2022/07/23 04:22:06;;;;;;;6.17;5.77;;;21.40;99.90;;;;;;4973357;28;20494;-74
2022/07/23 04:24:32;;;;;;;7.53;5.70;;;21.50;99.90;;;;;;4974159;28;20407;-75
2022/07/23 04:26:57;;;;;;;5.57;5.13;;;21.50;99.90;;;;;;4973076;28;20419;-75
2022/07/23 04:29:23;;;;;;;6.17;5.53;;;21.60;99.90;;;;;;4973807;28;20176;-73
2022/07/23 04:31:49;;;;;;;6.23;5.80;;;21.60;99.90;;;;;;4972632;28;20715;-75
2022/07/23 04:34:14;;;;;;;6.53;5.93;;;21.60;99.90;;;;;;4973947;28;20211;-75
2022/07/23 04:36:40;;;;;;;6.53;5.90;;;21.60;99.90;;;;;;4973588;28;20587;-75
2022/07/23 04:39:06;;;;;;;5.93;5.40;;;21.70;99.90;;;;;;4973410;28;20176;-74
2022/07/23 04:41:31;;;;;;;6.80;6.10;;;21.70;99.90;;;;;;4973133;28;20560;-74
2022/07/23 04:43:57;;;;;;;6.10;5.43;;;21.70;99.90;;;;;;4972918;28;20416;-75
2022/07/23 04:46:22;;;;;;;6.23;5.63;;;21.70;99.90;;;;;;4973475;28;20227;-74
2022/07/23 04:48:48;;;;;;;6.40;5.80;;;21.70;99.90;;;;;;4973380;28;20180;-75
2022/07/23 04:51:13;;;;;;;6.50;5.87;;;21.80;99.90;;;;;;4972731;28;20204;-75
2022/07/23 04:53:39;;;;;;;6.47;5.87;;;21.80;99.90;;;;;;4973455;28;20542;-75
2022/07/23 04:56:05;;;;;;;6.10;5.50;;;21.80;99.90;;;;;;4973018;28;20219;-75
2022/07/23 04:58:31;;;;;;;6.27;5.77;;;21.90;99.90;;;;;;4973404;28;20179;-75
2022/07/23 05:00:57;;;;;;;6.53;5.97;;;22.00;99.90;;;;;;4972581;28;20192;-75
2022/07/23 05:03:23;;;;;;;6.63;6.03;;;22.00;99.90;;;;;;4973031;28;20419;-73
2022/07/23 05:05:49;;;;;;;6.50;6.00;;;22.10;99.90;;;;;;4973359;28;20419;-74
2022/07/23 05:08:14;;;;;;;6.40;5.80;;;22.10;99.90;;;;;;4972591;28;20703;-73
2022/07/23 05:10:40;;;;;;;6.90;6.20;;;22.20;99.90;;;;;;4972262;28;20186;-75
2022/07/23 05:13:05;;;;;;;7.23;6.53;;;22.20;99.90;;;;;;4972769;28;20184;-74
2022/07/23 05:15:31;;;;;;;6.10;5.57;;;22.20;99.90;;;;;;4972903;28;20689;-74
2022/07/23 05:17:56;;;;;;;6.90;6.37;;;22.30;99.90;;;;;;4972682;28;20259;-74
2022/07/23 05:20:22;;;;;;;7.60;6.47;;;22.40;99.90;;;;;;4972907;28;20633;-72
2022/07/23 05:22:48;;;;;;;8.13;7.10;;;22.70;99.90;;;;;;4971932;28;20290;-74
2022/07/23 05:25:13;;;;;;;5.60;5.20;;;23.00;99.90;;;;;;4972870;28;20252;-74
2022/07/23 05:27:39;;;;;;;6.83;5.37;;;23.30;99.90;;;;;;4972752;28;20188;-74
2022/07/23 05:30:04;;;;;;;6.30;5.80;;;23.60;99.90;;;;;;4972393;28;20239;-73
2022/07/23 05:32:32;;;;;;;6.40;5.80;;;24.00;99.90;;;;;;4971894;28;20700;-73
2022/07/23 05:34:57;;;;;;;5.97;5.50;;;24.40;99.90;;;;;;4972075;28;20180;-74
2022/07/23 05:37:23;;;;;;;6.20;5.60;;;24.40;99.90;;;;;;4972535;28;20430;-72
2022/07/23 05:39:49;;;;;;;6.90;5.60;;;24.30;99.90;;;;;;4972461;28;20219;-74
2022/07/23 05:42:15;;;;;;;6.77;6.20;;;24.10;99.90;;;;;;4971959;28;20223;-74
2022/07/23 05:44:40;;;;;;;6.93;6.23;;;24.00;99.90;;;;;;4972201;28;20470;-75
2022/07/23 05:47:05;;;;;;;7.10;6.03;;;23.90;99.90;;;;;;4972228;28;20239;-73
2022/07/23 05:49:31;;;;;;;7.43;6.00;;;23.80;99.90;;;;;;4972266;28;20184;-74
2022/07/23 05:51:56;;;;;;;6.93;6.33;;;23.80;99.90;;;;;;4971568;28;20720;-74
2022/07/23 05:54:22;;;;;;;6.83;6.30;;;23.80;99.90;;;;;;4972250;28;20180;-71
2022/07/23 05:56:48;;;;;;;6.50;5.90;;;23.90;99.90;;;;;;4971454;28;20215;-75
2022/07/23 05:59:14;;;;;;;8.27;6.10;;;24.10;99.90;;;;;;4971989;28;20209;-75
2022/07/23 06:01:40;;;;;;;6.50;6.10;;;24.30;99.90;;;;;;4971399;28;20192;-75
2022/07/23 06:04:05;;;;;;;7.50;6.33;;;24.40;99.90;;;;;;4971189;28;20633;-73
2022/07/23 06:06:31;;;;;;;6.53;5.93;;;24.60;99.90;;;;;;4969921;28;20676;-75
2022/07/23 06:08:56;;;;;;;7.30;6.60;;;24.50;99.90;;;;;;4970689;28;20176;-75
2022/07/23 06:11:22;;;;;;;5.97;5.47;;;24.40;99.90;;;;;;4969970;28;20219;-72
2022/07/23 06:13:47;;;;;;;6.27;5.67;;;24.30;99.90;;;;;;4970995;28;20712;-75
2022/07/23 06:16:13;;;;;;;6.43;5.90;;;24.20;99.90;;;;;;4970306;28;20622;-75
2022/07/23 06:18:39;;;;;;;6.80;6.10;;;24.30;99.90;;;;;;4971021;28;20572;-75
2022/07/23 06:21:04;;;;;;;7.60;6.20;;;24.60;99.90;;;;;;4970820;28;20206;-74
2022/07/23 06:23:30;;;;;;;7.50;6.80;;;24.90;99.90;;;;;;4971678;28;20183;-74
2022/07/23 06:25:55;;;;;;;8.33;6.33;;;25.40;99.90;;;;;;4972238;28;20179;-75
2022/07/23 06:28:21;;;;;;;7.03;6.33;;;25.90;99.90;;;;;;4971853;28;20180;-75
2022/07/23 06:30:46;;;;;;;7.03;6.20;;;26.10;99.90;;;;;;4971136;28;20184;-74
2022/07/23 06:33:12;;;;;;;7.93;5.60;;;26.10;99.90;;;;;;4971657;28;20187;-74
2022/07/23 06:35:37;;;;;;;5.60;5.10;;;25.90;99.90;;;;;;4971701;28;20267;-75
2022/07/23 06:38:03;;;;;;;6.63;6.03;;;25.70;99.90;;;;;;4971418;28;20176;-73
2022/07/23 06:40:29;;;;;;;6.80;5.43;;;25.50;99.90;;;;;;4970579;28;20179;-75
2022/07/23 06:42:54;;;;;;;6.23;5.73;;;25.40;99.90;;;;;;4971081;28;20223;-74
2022/07/23 06:45:20;;;;;;;7.40;5.77;;;25.30;99.90;;;;;;4971591;28;20286;-74
2022/07/23 06:47:45;;;;;;;7.23;6.20;;;25.20;99.90;;;;;;4971189;28;20172;-74
2022/07/23 06:50:11;;;;;;;6.00;5.60;;;25.40;99.90;;;;;;4970267;28;20715;-74
2022/07/23 06:52:36;;;;;;;6.77;6.17;;;25.60;99.90;;;;;;4970884;28;20283;-75
2022/07/23 06:55:02;;;;;;;6.13;5.47;;;25.80;99.90;;;;;;4971084;28;20206;-74
2022/07/23 06:57:27;;;;;;;6.60;5.93;;;25.90;99.90;;;;;;4971405;28;20547;-77
2022/07/23 06:59:53;;;;;;;8.27;7.00;;;25.60;99.90;;;;;;4971375;28;20223;-74
2022/07/23 07:02:19;;;;;;;7.27;6.57;;;25.30;99.90;;;;;;4970182;28;20675;-75
2022/07/23 07:04:45;;;;;;;6.00;5.57;;;25.10;99.90;;;;;;4971053;28;20184;-75
2022/07/23 07:07:11;;;;;;;6.77;6.23;;;24.70;99.90;;;;;;4971187;28;20235;-74
2022/07/23 07:09:37;;;;;;;6.57;6.10;;;24.50;99.90;;;;;;4970768;28;20229;-73
2022/07/23 07:12:03;;;;;;;6.50;5.90;;;24.20;99.90;;;;;;4970373;28;20447;-71
2022/07/23 07:14:29;;;;;;;8.63;6.27;;;23.90;99.90;;;;;;4971458;28;20192;-73
2022/07/23 07:16:54;;;;;;;6.33;5.73;;;23.70;99.90;;;;;;4971056;28;20283;-73
2022/07/23 07:19:20;;;;;;;7.20;6.50;;;23.70;99.90;;;;;;4970674;28;20247;-73
2022/07/23 07:21:45;;;;;;;7.00;6.40;;;23.60;99.90;;;;;;4970383;28;20211;-73
2022/07/23 07:24:11;;;;;;;7.80;6.63;;;23.50;99.90;;;;;;4971063;28;20184;-74
2022/07/23 07:26:38;;;;;;;6.73;6.17;;;23.50;99.90;;;;;;4971019;28;20179;-76
2022/07/23 07:29:04;;;;;;;7.27;6.53;;;23.40;99.90;;;;;;4970022;28;20514;-75
2022/07/23 07:31:29;;;;;;;7.87;7.10;;;23.40;99.90;;;;;;4970248;28;20454;-74
2022/07/23 07:33:56;;;;;;;7.93;7.13;;;23.20;99.90;;;;;;4970791;28;20204;-74
2022/07/23 07:36:22;;;;;;;8.13;7.33;;;22.80;99.90;;;;;;4971013;28;20208;-71
2022/07/23 07:38:47;;;;;;;7.90;7.30;;;22.60;99.90;;;;;;4970278;28;20423;-75
2022/07/23 07:41:13;;;;;;;8.27;7.53;;;22.30;99.90;;;;;;4970163;28;20200;-73
2022/07/23 07:43:38;;;;;;;7.90;7.20;;;22.30;99.90;;;;;;4972120;28;20180;-74
2022/07/23 07:46:04;;;;;;;7.47;6.77;;;22.50;99.90;;;;;;4971632;28;20556;-75
2022/07/23 07:48:30;;;;;;;7.80;7.10;;;22.70;99.90;;;;;;4970304;28;20186;-75
2022/07/23 07:50:55;;;;;;;8.50;6.37;;;23.00;99.90;;;;;;4970259;28;20250;-75
2022/07/23 07:53:21;;;;;;;7.30;6.70;;;23.10;99.90;;;;;;4970960;28;20191;-75
2022/07/23 07:55:46;;;;;;;9.93;7.30;;;23.10;99.90;;;;;;4969309;28;20204;-75
2022/07/23 07:58:12;;;;;;;7.90;7.10;;;22.90;99.90;;;;;;4970277;28;20172;-75
2022/07/23 08:00:38;;;;;;;7.60;6.83;;;22.90;99.90;;;;;;4970784;28;20546;-75
2022/07/23 08:03:03;;;;;;;8.10;7.27;;;23.00;99.90;;;;;;4974476;28;20238;-74
2022/07/23 08:05:30;;;;;;;8.87;7.43;;;23.10;99.90;;;;;;4974155;28;20195;-74
2022/07/23 08:07:57;;;;;;;8.47;7.77;;;23.30;99.90;;;;;;4973315;28;20180;-74
2022/07/23 08:10:23;;;;;;;6.53;6.03;;;23.40;99.90;;;;;;4973088;28;20427;-71
2022/07/23 08:12:51;;;;;;;8.00;5.93;;;23.70;99.90;;;;;;4972337;28;20466;-75
2022/07/23 08:15:19;;;;;;;7.83;7.03;;;24.10;99.90;;;;;;4973210;28;20496;-75
2022/07/23 08:17:46;;;;;;;9.00;7.53;;;23.90;99.90;;;;;;4973430;28;20416;-75
2022/07/23 08:20:13;;;;;;;7.37;6.67;;;23.70;99.90;;;;;;4973293;28;20435;-75
2022/07/23 08:22:47;;;;;;;10.03;6.30;;;23.60;99.90;;;;;;4973184;28;20435;-75
2022/07/23 08:25:14;;;;;;;7.03;6.50;;;23.50;99.90;;;;;;4953679;28;20429;-75
2022/07/23 08:27:39;;;;;;;7.97;5.77;;;23.40;99.90;;;;;;4973812;28;20434;-75
2022/07/23 08:30:06;;;;;;;9.90;6.63;;;23.30;99.90;;;;;;4973019;28;20412;-75
2022/07/23 08:32:31;;;;;;;7.67;6.13;;;23.20;99.90;;;;;;4973018;28;20208;-75
2022/07/23 08:34:57;;;;;;;7.03;6.43;;;23.40;99.90;;;;;;4973504;28;20442;-75
2022/07/23 08:37:22;;;;;;;7.10;6.60;;;23.70;99.90;;;;;;4973368;28;20207;-72
2022/07/23 08:39:48;;;;;;;6.47;5.97;;;24.10;99.90;;;;;;4973204;28;20230;-75
2022/07/23 08:42:14;;;;;;;6.03;5.63;;;24.40;99.90;;;;;;4972959;28;20250;-75
2022/07/23 08:44:44;;;;;;;6.13;5.53;;;24.90;99.90;;;;;;4973144;28;20649;-75
2022/07/23 08:47:11;;;;;;;11.60;5.60;;;25.60;99.90;;;;;;4973320;28;20558;-75
2022/07/23 08:49:38;;;;;;;5.83;5.43;;;26.20;99.90;;;;;;4973222;28;20498;-75
2022/07/23 08:52:04;;;;;;;5.57;5.17;;;26.70;99.90;;;;;;4972565;28;20443;-73
2022/07/23 08:54:30;;;;;;;7.10;6.00;;;27.20;99.90;;;;;;4973097;28;20420;-75
2022/07/23 08:56:55;;;;;;;6.80;6.20;;;27.60;99.90;;;;;;4972520;28;20513;-75
2022/07/23 08:59:21;;;;;;;6.30;5.80;;;28.00;99.90;;;;;;4973474;28;20172;-75
2022/07/23 09:01:46;;;;;;;6.97;6.27;;;27.90;99.90;;;;;;4971930;28;20227;-73
2022/07/23 09:04:12;;;;;;;6.23;5.63;;;28.20;99.90;;;;;;4972547;28;20196;-74
2022/07/23 09:06:39;;;;;;;5.60;5.20;;;28.60;99.90;;;;;;4973005;28;20561;-75
2022/07/23 09:09:20;;;;;;;8.43;5.53;;;29.40;99.90;;;;;;4968411;28;20307;-74
2022/07/23 09:11:47;;;;;;;7.10;5.43;;;29.60;99.90;;;;;;4953260;28;20459;-75
2022/07/23 09:14:13;;;;;;;5.60;5.20;;;29.50;99.90;;;;;;4972885;28;20747;-76
2022/07/23 09:16:38;;;;;;;7.90;5.60;;;29.40;99.90;;;;;;4972485;28;20462;-76
2022/07/23 09:19:06;;;;;;;6.00;5.60;;;29.40;99.90;;;;;;4968744;28;20215;-74
2022/07/23 09:21:33;;;;;;;5.70;5.30;;;29.60;99.90;;;;;;4971831;28;20200;-76
2022/07/23 09:24:02;;;;;;;6.70;6.17;;;29.70;99.90;;;;;;4971899;28;20758;-76
2022/07/23 09:26:38;;;;;;;5.63;5.23;;;29.40;99.90;;;;;;4976467;28;20412;-75
2022/07/23 09:29:18;;;;;;;6.93;5.43;;;29.30;99.90;;;;;;4972108;28;20427;-75
2022/07/23 09:31:52;;;;;;;5.50;5.00;;;29.50;99.90;;;;;;4971619;28;20850;-75
2022/07/23 09:34:21;;;;;;;6.67;5.50;;;29.30;99.90;;;;;;4972178;28;20510;-76
2022/07/23 09:36:47;;;;;;;5.77;5.30;;;29.10;99.90;;;;;;4967517;28;20471;-75
2022/07/23 09:39:15;;;;;;;5.30;4.77;;;29.40;99.90;;;;;;4969450;28;20458;-75
2022/07/23 09:41:45;;;;;;;6.60;6.10;;;29.90;99.90;;;;;;4971417;28;20431;-76
2022/07/23 09:44:17;;;;;;;5.67;5.27;;;30.50;99.90;;;;;;4972394;28;20439;-76
2022/07/23 09:46:45;;;;;;;5.73;5.37;;;30.80;99.90;;;;;;4972394;28;20481;-73
2022/07/23 09:49:13;;;;;;;5.37;4.97;;;31.30;99.90;;;;;;4972054;28;20467;-76
2022/07/23 09:51:58;;;;;;;5.87;5.37;;;31.40;99.90;;;;;;4971177;28;20462;-76
2022/07/23 09:54:30;;;;;;;5.13;4.83;;;32.00;99.90;;;;;;4971807;28;20924;-75
2022/07/23 09:56:58;;;;;;;5.37;5.03;;;32.60;99.90;;;;;;4972308;28;20606;-75
2022/07/23 09:59:30;;;;;;;6.43;4.50;;;32.60;99.90;;;;;;4971757;28;20422;-74
2022/07/23 10:01:59;;;;;;;5.70;5.30;;;33.00;99.90;;;;;;4971472;28;20438;-76
2022/07/23 10:04:26;;;;;;;5.23;4.90;;;33.00;99.90;;;;;;4971364;28;20410;-74
2022/07/23 10:06:54;;;;;;;5.60;5.10;;;33.30;99.90;;;;;;4971987;28;20415;-76
2022/07/23 10:09:24;;;;;;;6.23;4.87;;;33.50;99.90;;;;;;4971946;28;20424;-75
2022/07/23 10:11:51;;;;;;;5.30;5.00;;;33.90;99.90;;;;;;4970949;28;20415;-75
2022/07/23 10:14:18;;;;;;;4.17;3.97;;;33.80;99.90;;;;;;4972124;28;20415;-76
2022/07/23 10:16:44;;;;;;;5.50;5.00;;;33.90;99.90;;;;;;4971395;28;20462;-74
2022/07/23 10:19:09;;;;;;;4.57;4.17;;;33.80;99.90;;;;;;4971634;28;20419;-76
2022/07/23 10:21:51;;;;;;;5.07;4.67;;;33.90;99.90;;;;;;4971089;28;20211;-75
2022/07/23 10:24:59;;;;;;;6.13;5.23;;;33.40;99.90;;;;;;4970731;28;20172;-76
2022/07/23 10:27:51;;;;;;;4.63;4.23;;;33.30;99.90;;;;;;4971706;28;20557;-75
2022/07/23 10:30:45;;;;;;;8.67;5.63;;;32.70;99.90;;;;;;4971674;28;20412;-75
2022/07/23 10:33:22;;;;;;;5.60;5.30;;;32.80;99.90;;;;;;4972173;28;20424;-76
2022/07/23 10:36:03;;;;;;;5.23;4.83;;;33.10;99.90;;;;;;4970756;28;20438;-77
2022/07/23 10:38:47;;;;;;;6.53;6.03;;;33.30;99.90;;;;;;4970991;28;20416;-77
2022/07/23 10:41:13;;;;;;;5.47;5.03;;;33.80;99.90;;;;;;4971142;28;20522;-75
2022/07/23 10:43:38;;;;;;;6.60;6.03;;;34.10;99.90;;;;;;4971472;28;20456;-77
2022/07/23 10:46:27;;;;;;;5.20;4.80;;;33.60;99.90;;;;;;4970627;28;20192;-74
2022/07/23 10:49:28;;;;;;;5.90;5.47;;;33.40;99.90;;;;;;4971324;28;20172;-74
2022/07/23 10:52:17;;;;;;;9.23;5.30;;;33.20;99.90;;;;;;4970847;28;20810;-74
2022/07/23 10:54:50;;;;;;;10.77;8.20;;;33.50;99.90;;;;;;4974552;28;20438;-73
2022/07/23 10:57:18;;;;;;;7.80;6.90;;;33.70;99.90;;;;;;4971682;28;20463;-74
2022/07/23 11:02:31;;;;;;;7.30;6.53;;;33.30;99.90;;;;;;4970887;28;20435;-76
2022/07/23 11:05:03;;;;;;;4.70;4.30;;;33.20;99.90;;;;;;4971117;28;20415;-76
2022/07/23 11:07:29;;;;;;;6.13;5.53;;;33.20;99.80;;;;;;4971469;28;20449;-76
2022/07/23 11:09:54;;;;;;;6.10;5.03;;;33.40;99.90;;;;;;4971409;28;20403;-77
2022/07/23 11:12:23;;;;;;;5.57;5.27;;;33.40;99.90;;;;;;4970692;28;20196;-77
2022/07/23 11:15:14;;;;;;;5.53;5.13;;;33.20;99.90;;;;;;4971336;28;20526;-78
2022/07/23 11:17:42;;;;;;;5.73;5.33;;;33.00;99.90;;;;;;4971536;28;20506;-76
2022/07/23 11:20:16;;;;;;;5.80;5.30;;;32.30;99.90;;;;;;4970917;28;20731;-76
2022/07/23 11:22:42;;;;;;;7.53;5.90;;;31.80;99.90;;;;;;4970408;28;20521;-74
2022/07/23 11:25:08;;;;;;;5.73;5.20;;;31.40;99.90;;;;;;4953872;28;20498;-75
2022/07/23 11:27:42;;;;;;;5.50;5.00;;;31.10;99.90;;;;;;4972126;28;20518;-77
2022/07/23 11:30:10;;;;;;;8.40;5.60;;;31.00;99.90;;;;;;4972385;28;20419;-76
2022/07/23 11:32:40;;;;;;;6.43;5.37;;;30.70;99.90;;;;;;4970564;28;20550;-77
2022/07/23 11:35:27;;;;;;;6.27;5.77;;;30.40;99.90;;;;;;4972604;28;20414;-77
2022/07/23 11:38:02;;;;;;;7.00;6.30;;;30.30;99.90;;;;;;4974775;28;20535;-75
2022/07/23 11:40:28;;;;;;;5.73;5.30;;;30.20;99.90;;;;;;4870288;28;20438;-77
2022/07/23 11:43:04;;;;;;;6.00;5.50;;;30.30;99.90;;;;;;4854864;28;20785;-84
2022/07/23 11:45:39;;;;;;;6.93;6.43;;;30.30;99.90;;;;;;4863882;28;20333;-77
2022/07/23 11:48:07;;;;;;;6.93;6.27;;;30.10;99.90;;;;;;4880515;28;20617;-78
2022/07/23 11:50:33;;;;;;;5.93;5.53;;;30.40;99.90;;;;;;4842726;28;20853;-79
2022/07/23 11:53:05;;;;;;;6.70;6.20;;;30.70;99.90;;;;;;4855331;28;20799;-80
2022/07/23 11:55:33;;;;;;;5.77;5.37;;;31.10;99.90;;;;;;4875118;28;20801;-77
2022/07/23 11:57:59;;;;;;;6.43;5.93;;;31.30;99.90;;;;;;4858771;28;20812;-76
2022/07/23 12:00:28;;;;;;;7.90;6.67;;;31.60;99.90;;;;;;4882865;28;20419;-76
2022/07/23 12:02:58;;;;;;;6.23;5.73;;;31.50;99.90;;;;;;4911330;28;20562;-77
2022/07/23 12:05:27;;;;;;;6.80;6.20;;;31.70;99.90;;;;;;4909564;28;20475;-75
2022/07/23 12:09:07;;;;;;;;;;;;;;;;;;;;;
2022/07/23 12:11:06;;;;;;;6.60;5.93;;;31.60;99.90;;;;;;4881497;28;20443;-75
2022/07/23 12:13:31;;;;;;;10.13;5.50;;;31.50;99.90;;;;;;4910170;28;20411;-73
2022/07/23 12:15:58;;;;;;;6.53;5.90;;;31.50;99.90;;;;;;4908716;28;20896;-75
2022/07/23 12:18:26;;;;;;;6.80;6.10;;;31.40;99.90;;;;;;4909801;28;20168;-75
2022/07/23 12:20:55;;;;;;;7.17;6.50;;;31.50;99.90;;;;;;4911213;28;20434;-74
2022/07/23 12:23:23;;;;;;;21.30;7.63;;;31.30;99.90;;;;;;4908047;28;20505;-75
2022/07/23 12:25:51;;;;;;;30.83;6.73;;;31.30;99.90;;;;;;4908367;28;20469;-75
2022/07/23 12:28:22;;;;;;;11.10;6.67;;;31.20;99.90;;;;;;4908371;28;20434;-74
2022/07/23 12:30:53;;;;;;;6.55;5.95;;;31.20;99.90;;;;;;4907679;28;20414;-76
2022/07/23 12:33:27;;;;;;;6.77;6.20;;;31.00;99.90;;;;;;4910235;28;20168;-77
2022/07/23 12:35:55;;;;;;;6.90;6.27;;;31.00;99.90;;;;;;4907935;28;20451;-74
2022/07/23 12:38:22;;;;;;;7.50;6.90;;;31.00;99.90;;;;;;4906890;28;20687;-74
2022/07/23 12:40:53;;;;;;;6.77;6.27;;;30.90;99.90;;;;;;4909876;28;20767;-74
2022/07/23 12:43:35;;;;;;;6.93;6.33;;;30.80;99.90;;;;;;4910158;28;20411;-74
2022/07/23 12:46:16;;;;;;;7.00;6.30;;;30.60;99.90;;;;;;4907377;28;20505;-73
2022/07/23 12:48:54;;;;;;;6.30;5.83;;;30.40;99.90;;;;;;4907303;28;20490;-74
2022/07/23 12:51:22;;;;;;;7.57;6.77;;;30.20;99.90;;;;;;4907208;28;20439;-74
2022/07/23 12:53:49;;;;;;;6.87;6.37;;;30.10;99.90;;;;;;4907693;28;20435;-73
2022/07/23 12:56:21;;;;;;;7.90;7.10;;;30.00;99.90;;;;;;4910504;28;20466;-74
2022/07/23 12:59:02;;;;;;;8.70;7.10;;;29.80;99.90;;;;;;4900085;28;20447;-74
2022/07/23 13:01:30;;;;;;;7.30;6.67;;;29.70;99.90;;;;;;4891343;28;20436;-75
2022/07/23 13:04:00;;;;;;;7.17;6.57;;;29.50;99.90;;;;;;4904456;28;20423;-74
2022/07/23 13:06:32;;;;;;;7.20;6.00;;;29.40;99.90;;;;;;4907009;28;20487;-74
2022/07/23 13:08:58;;;;;;;6.60;6.00;;;29.50;99.90;;;;;;4907446;28;20408;-74
2022/07/23 13:11:25;;;;;;;7.67;6.50;;;29.60;99.90;;;;;;4904026;28;20546;-74
2022/07/23 13:13:50;;;;;;;7.87;6.63;;;29.60;99.90;;;;;;4893466;28;20614;-72
2022/07/23 13:16:16;;;;;;;6.80;6.20;;;29.60;99.90;;;;;;4908190;28;20757;-74
2022/07/23 13:18:42;;;;;;;6.50;6.00;;;29.50;99.90;;;;;;4883223;28;20188;-73
2022/07/23 13:21:08;;;;;;;6.37;5.83;;;29.50;99.90;;;;;;4890664;28;20809;-75
2022/07/23 13:23:34;;;;;;;7.37;6.70;;;29.60;99.90;;;;;;4966279;28;20255;-76
2022/07/23 13:25:59;;;;;;;7.37;6.77;;;29.60;99.90;;;;;;4972508;28;20176;-75
2022/07/23 13:28:25;;;;;;;6.13;5.63;;;29.60;99.90;;;;;;4971961;28;20175;-73
2022/07/23 13:30:51;;;;;;;7.97;7.47;;;29.60;99.90;;;;;;4968958;28;20203;-74
2022/07/23 13:33:22;;;;;;;9.13;7.67;;;29.40;99.90;;;;;;4972841;28;20263;-75
2022/07/23 13:35:49;;;;;;;7.33;6.73;;;29.30;99.90;;;;;;4972414;28;20463;-74
2022/07/23 13:38:14;;;;;;;7.57;7.00;;;29.40;99.90;;;;;;4955215;28;20956;-74
2022/07/23 13:40:42;;;;;;;7.30;6.60;;;29.40;99.90;;;;;;4971082;28;20415;-74
2022/07/23 13:43:10;;;;;;;8.20;7.50;;;29.50;99.90;;;;;;4972346;28;20179;-74
2022/07/23 13:45:37;;;;;;;8.13;7.43;;;29.70;99.90;;;;;;4972375;28;20502;-74
2022/07/23 13:48:04;;;;;;;7.80;7.10;;;29.80;99.90;;;;;;4972076;28;20415;-73
2022/07/23 13:50:29;;;;;;;8.23;7.63;;;29.70;99.90;;;;;;4971893;28;20426;-75
2022/07/23 13:52:55;;;;;;;12.57;7.77;;;29.90;99.90;;;;;;4971822;28;20424;-75
2022/07/23 13:55:21;;;;;;;8.70;8.00;;;29.90;99.90;;;;;;4971892;28;20223;-74
2022/07/23 13:57:46;;;;;;;9.03;7.20;;;29.80;99.90;;;;;;4971207;28;20180;-74
2022/07/23 14:00:13;;;;;;;8.50;7.70;;;29.60;99.90;;;;;;4971381;28;20176;-74
2022/07/23 14:02:40;;;;;;;7.23;6.70;;;29.70;99.90;;;;;;4933507;28;20966;-74
2022/07/23 14:05:09;;;;;;;7.33;6.73;;;29.70;99.90;;;;;;4927813;28;20447;-74
2022/07/23 14:07:35;;;;;;;7.77;7.07;;;29.80;99.90;;;;;;4970481;28;20460;-74
2022/07/23 14:10:01;;;;;;;7.53;6.80;;;29.80;99.90;;;;;;4935618;28;20798;-73
2022/07/23 14:12:26;;;;;;;8.27;7.67;;;29.90;99.90;;;;;;4970337;28;20427;-74
2022/07/23 14:14:52;;;;;;;8.10;7.40;;;30.00;99.90;;;;;;4965889;28;20535;-74
2022/07/23 14:17:18;;;;;;;7.30;6.80;;;30.00;99.90;;;;;;4971492;28;20195;-75
2022/07/23 14:19:43;;;;;;;7.77;7.07;;;30.20;99.90;;;;;;4971183;28;20180;-75
2022/07/23 14:22:09;;;;;;;7.30;6.70;;;30.10;99.90;;;;;;4970862;28;20651;-75
2022/07/23 14:24:34;;;;;;;9.23;6.67;;;30.20;99.90;;;;;;4971784;28;20160;-75